Friday, October 20, 2017, 9:26 PM EDT
Back to Local

KAGC, Pittsburgh Allegheny Cty.

Location: West Mifflin, PA, United States Lat: 40.35
Local Time: 9:26 PM EDT ( 1:26 GMT) Lon: -79.917
Time Zone: US/Eastern Elev: 1253 ft

Show me the last for .
Show Decoded

2017-10-20 20:53 METAR KAGC 210053Z 16004KT 10SM CLR 17/01 A3023 RMK AO2 SLP242 T01720011 =
2017-10-20 19:53 METAR KAGC 202353Z 14003KT 10SM CLR 18/00 A3023 RMK AO2 SLP240 T01830000 10222
                 20183 56003 =
2017-10-20 18:53 METAR KAGC 202253Z 00000KT 10SM CLR 19/M01 A3023 RMK AO2 SLP240 T01941006 =
2017-10-20 17:53 METAR KAGC 202153Z 00000KT 10SM CLR 21/M02 A3023 RMK AO2 SLP240 T02061017 =
2017-10-20 16:53 METAR KAGC 202053Z 00000KT 10SM CLR 22/M01 A3024 RMK AO2 SLP241 T02221006 56011
                 =
2017-10-20 15:53 METAR KAGC 201953Z 03003KT 10SM CLR 21/M01 A3024 RMK AO2 SLP243 T02111006 =
2017-10-20 14:53 METAR KAGC 201853Z 00000KT 10SM CLR 21/M02 A3026 RMK AO2 SLP248 T02111022 =
2017-10-20 13:53 METAR KAGC 201753Z 23005KT 10SM CLR 20/M02 A3027 RMK AO2 SLP253 T02001017 10206
                 20111 58013 =
2017-10-20 12:53 METAR KAGC 201653Z VRB03KT 10SM CLR 20/M01 A3029 RMK AO2 SLP258 T02001011 =
2017-10-20 11:53 METAR KAGC 201553Z 34007KT 10SM CLR 18/01 A3031 RMK AO2 SLP266 T01780011 =
2017-10-20 10:53 METAR KAGC 201453Z VRB04KT 10SM CLR 17/07 A3031 RMK AO2 SLP267 T01670067 50012 =
2017-10-20 09:53 METAR KAGC 201353Z VRB04KT 10SM CLR 15/08 A3031 RMK AO2 SLP268 T01500078 =
2017-10-20 08:53 METAR KAGC 201253Z VRB03KT 10SM CLR 13/08 A3030 RMK AO2 SLP265 T01280083 =
2017-10-20 07:53 METAR KAGC 201153Z 24003KT 10SM CLR 11/07 A3028 RMK AO2 SLP256 T01110072 10139
                 20106 53021 =
2017-10-20 06:53 METAR KAGC 201053Z 26004KT 10SM CLR 12/07 A3025 RMK AO2 SLP248 T01170072 =
2017-10-20 05:53 METAR KAGC 200953Z 26006KT 10SM CLR 12/07 A3023 RMK AO2 SLP240 T01170072 =
2017-10-20 04:53 METAR KAGC 200853Z 25007KT 10SM CLR 12/07 A3021 RMK AO2 SLP232 T01220072 53004 =
2017-10-20 03:53 METAR KAGC 200753Z 25006KT 10SM CLR 13/07 A3020 RMK AO2 SLP227 T01330072 =
2017-10-20 02:53 METAR KAGC 200653Z 24007KT 10SM CLR 13/07 A3019 RMK AO2 SLP225 T01330072 =
2017-10-20 01:53 METAR KAGC 200553Z 23006KT 10SM CLR 14/07 A3020 RMK AO2 SLP228 T01390067 10172
                 20139 53006 =
2017-10-20 00:53 METAR KAGC 200453Z 24007KT 10SM CLR 15/07 A3019 RMK AO2 SLP226 T01500067
                 402060072 =
2017-10-19 23:53 METAR KAGC 200353Z 23009KT 10SM CLR 15/06 A3019 RMK AO2 SLP224 T01500061 =
2017-10-19 22:53 METAR KAGC 200253Z 22010KT 10SM CLR 16/06 A3018 RMK AO2 SLP223 T01560061 51004 =
2017-10-19 21:53 METAR KAGC 200153Z 21009KT 10SM CLR 16/06 A3018 RMK AO2 SLP224 T01610061 =

Support USWX by starting your Amazon purchase here.